createdAt,value
2022-08-18T00:01:33.170Z,95.23
2022-08-18T00:04:03.431Z,95.23
2022-08-18T00:06:30.574Z,95.42
2022-08-18T00:08:59.479Z,95.34
2022-08-18T00:11:27.232Z,95.71
2022-08-18T00:13:53.782Z,95.74
2022-08-18T00:16:20.614Z,96.11
2022-08-18T00:18:47.272Z,96.13
2022-08-18T00:21:13.809Z,96.06
2022-08-18T00:23:40.307Z,96.66
2022-08-18T00:26:06.896Z,96.79
2022-08-18T00:28:33.484Z,97.31
2022-08-18T00:31:00.103Z,98.24
2022-08-18T00:33:26.679Z,98.53
2022-08-18T00:35:53.383Z,99.02
2022-08-18T00:38:25.010Z,99.48
2022-08-18T00:40:55.655Z,100.00
2022-08-18T00:43:32.725Z,100.00
2022-08-18T00:45:59.275Z,100.00
2022-08-18T00:48:26.276Z,100.00
2022-08-18T00:50:54.464Z,100.00
2022-08-18T00:53:30.460Z,100.00
2022-08-18T00:56:01.993Z,100.00
2022-08-18T00:58:35.883Z,100.00
2022-08-18T01:01:05.870Z,100.00
2022-08-18T01:03:34.174Z,100.00
2022-08-18T01:06:07.179Z,100.00
2022-08-18T01:08:33.796Z,100.00
2022-08-18T01:11:02.823Z,100.00
2022-08-18T01:13:32.978Z,100.00
2022-08-18T01:16:21.039Z,100.00
2022-08-18T01:19:06.431Z,100.00
2022-08-18T01:21:51.905Z,100.00
2022-08-18T01:24:22.137Z,100.00
2022-08-18T01:26:52.093Z,100.00
2022-08-18T01:29:19.890Z,100.00
2022-08-18T01:31:56.093Z,100.00
2022-08-18T01:34:26.345Z,100.00
2022-08-18T01:36:55.203Z,100.00
2022-08-18T01:41:17.570Z,100.00
2022-08-18T01:42:09.533Z,100.00
2022-08-18T01:44:36.537Z,100.00
2022-08-18T01:47:03.705Z,100.00
2022-08-18T01:49:30.285Z,100.00
2022-08-18T01:51:56.816Z,100.00
2022-08-18T01:54:23.360Z,100.00
2022-08-18T01:56:50.215Z,100.00
2022-08-18T01:59:16.801Z,100.00
2022-08-18T02:01:50.380Z,100.00
2022-08-18T02:04:35.232Z,100.00
2022-08-18T02:07:04.736Z,100.00
2022-08-18T02:09:31.286Z,100.00
2022-08-18T02:11:57.886Z,100.00
2022-08-18T02:14:26.921Z,100.00
2022-08-18T02:17:01.903Z,100.00
2022-08-18T02:19:33.579Z,100.00
2022-08-18T02:22:00.412Z,100.00
2022-08-18T02:24:26.949Z,100.00
2022-08-18T02:26:53.604Z,100.00
2022-08-18T02:29:20.159Z,100.00
2022-08-18T02:31:46.674Z,100.00
2022-08-18T02:34:13.140Z,100.00
2022-08-18T02:36:39.640Z,100.00
2022-08-18T02:39:06.129Z,100.00
2022-08-18T02:41:33.108Z,100.00
2022-08-18T02:44:00.218Z,100.00
2022-08-18T02:46:29.881Z,100.00
2022-08-18T02:48:59.111Z,100.00
2022-08-18T02:51:26.124Z,100.00
2022-08-18T02:53:54.084Z,100.00
2022-08-18T02:56:32.741Z,100.00
2022-08-18T02:59:10.762Z,100.00
2022-08-18T03:01:40.797Z,100.00
2022-08-18T03:04:10.098Z,100.00
2022-08-18T03:06:38.105Z,100.00
2022-08-18T03:09:06.565Z,100.00
2022-08-18T03:11:33.138Z,100.00
2022-08-18T03:14:00.480Z,100.00
2022-08-18T03:16:27.316Z,100.00
2022-08-18T03:18:54.525Z,100.00
2022-08-18T03:21:23.526Z,100.00
2022-08-18T03:24:01.558Z,100.00
2022-08-18T03:26:30.306Z,100.00
2022-08-18T03:28:58.277Z,100.00
2022-08-18T03:31:27.965Z,100.00
2022-08-18T03:33:59.233Z,100.00
2022-08-18T03:36:31.854Z,100.00
2022-08-18T03:39:01.851Z,100.00
2022-08-18T03:41:58.969Z,100.00
2022-08-18T03:44:16.338Z,100.00
2022-08-18T03:46:45.357Z,100.00
2022-08-18T03:49:12.708Z,100.00
2022-08-18T03:51:48.893Z,100.00
2022-08-18T03:54:18.727Z,100.00
2022-08-18T03:56:46.690Z,100.00
2022-08-18T03:59:18.041Z,100.00
2022-08-18T04:01:46.335Z,100.00
2022-08-18T04:04:16.237Z,100.00
2022-08-18T04:06:51.127Z,100.00
2022-08-18T04:09:18.703Z,100.00
2022-08-18T04:11:46.283Z,100.00
2022-08-18T04:14:15.322Z,100.00
2022-08-18T04:16:42.183Z,100.00
2022-08-18T04:19:09.862Z,100.00
2022-08-18T04:21:39.767Z,100.00
2022-08-18T04:24:08.096Z,100.00
2022-08-18T04:26:43.263Z,100.00
2022-08-18T04:29:11.006Z,100.00
2022-08-18T04:31:37.684Z,100.00
2022-08-18T04:34:05.819Z,100.00
2022-08-18T04:36:34.610Z,100.00
2022-08-18T04:39:02.864Z,100.00
2022-08-18T04:41:29.625Z,100.00
2022-08-18T04:44:01.400Z,100.00
2022-08-18T04:46:29.047Z,100.00
2022-08-18T04:48:58.948Z,100.00
2022-08-18T04:52:31.038Z,100.00
2022-08-18T04:54:16.032Z,100.00
2022-08-18T04:56:42.820Z,100.00
2022-08-18T04:59:12.691Z,100.00
2022-08-18T05:01:47.902Z,100.00
2022-08-18T05:04:17.609Z,100.00
2022-08-18T05:06:45.688Z,100.00
2022-08-18T05:09:16.780Z,100.00
2022-08-18T05:11:50.627Z,100.00
2022-08-18T05:14:18.049Z,100.00
2022-08-18T05:16:48.164Z,100.00
2022-08-18T05:19:22.131Z,100.00
2022-08-18T05:21:51.318Z,100.00
2022-08-18T05:24:18.999Z,100.00
2022-08-18T05:26:46.058Z,100.00
2022-08-18T05:29:18.905Z,100.00
2022-08-18T05:31:47.680Z,100.00
2022-08-18T05:34:14.538Z,100.00
2022-08-18T05:36:46.903Z,100.00
2022-08-18T05:39:19.491Z,100.00
2022-08-18T05:42:11.186Z,100.00
2022-08-18T05:44:43.013Z,100.00
2022-08-18T05:47:30.446Z,100.00
2022-08-18T05:50:05.280Z,100.00
2022-08-18T05:52:52.998Z,100.00
2022-08-18T05:55:58.083Z,100.00
2022-08-18T05:58:51.777Z,100.00
2022-08-18T06:01:41.732Z,100.00
2022-08-18T06:04:24.794Z,100.00
2022-08-18T06:06:57.338Z,100.00
2022-08-18T06:09:36.834Z,100.00
2022-08-18T06:12:19.508Z,100.00
2022-08-18T06:14:46.229Z,100.00
2022-08-18T06:17:35.681Z,100.00
2022-08-18T06:20:14.242Z,100.00
2022-08-18T06:22:58.402Z,100.00
2022-08-18T06:25:46.612Z,100.00
2022-08-18T06:28:16.134Z,100.00
2022-08-18T06:30:42.714Z,100.00
2022-08-18T06:33:31.636Z,100.00
2022-08-18T06:36:13.152Z,100.00
2022-08-18T06:38:58.589Z,100.00
2022-08-18T06:41:43.940Z,100.00
2022-08-18T06:44:13.719Z,100.00
2022-08-18T06:46:56.024Z,100.00
2022-08-18T06:49:46.585Z,100.00
2022-08-18T06:52:37.198Z,100.00
2022-08-18T06:55:13.964Z,100.00
2022-08-18T06:57:57.977Z,99.52
2022-08-18T07:00:32.697Z,99.43
2022-08-18T07:03:14.448Z,99.25
2022-08-18T07:06:04.645Z,99.08
2022-08-18T07:08:43.318Z,98.07
2022-08-18T07:11:34.622Z,97.48
2022-08-18T07:14:21.501Z,96.49
2022-08-18T07:16:59.024Z,96.62
2022-08-18T07:19:29.943Z,96.07
2022-08-18T07:22:08.241Z,96.21
2022-08-18T07:24:46.830Z,94.40
2022-08-18T07:27:22.650Z,94.08
2022-08-18T07:30:15.435Z,93.52
2022-08-18T07:32:51.355Z,92.84
2022-08-18T07:35:28.045Z,93.01
2022-08-18T07:38:38.499Z,92.15
2022-08-18T07:41:02.272Z,91.09
2022-08-18T07:43:46.264Z,90.18
2022-08-18T07:46:19.283Z,89.80
2022-08-18T07:48:46.821Z,89.70
2022-08-18T07:51:30.411Z,88.84
2022-08-18T07:54:47.233Z,88.45
2022-08-18T07:57:19.815Z,86.45
2022-08-18T07:59:54.535Z,86.25
2022-08-18T08:02:40.316Z,85.47
2022-08-18T08:05:35.584Z,84.11
2022-08-18T08:08:15.943Z,81.42
2022-08-18T08:11:08.699Z,82.17
2022-08-18T08:13:59.876Z,81.55
2022-08-18T08:16:37.450Z,79.88
2022-08-18T08:19:31.469Z,79.26
2022-08-18T08:22:19.477Z,79.04
2022-08-18T08:25:17.644Z,78.67
2022-08-18T08:28:07.703Z,78.20
2022-08-18T08:30:42.268Z,79.33
2022-08-18T08:33:27.014Z,80.06
2022-08-18T08:36:04.491Z,79.88
2022-08-18T08:38:45.031Z,80.22
2022-08-18T08:41:40.880Z,79.31
2022-08-18T08:44:23.964Z,79.27
2022-08-18T08:47:03.145Z,79.36
2022-08-18T08:49:41.768Z,79.69
2022-08-18T08:52:29.959Z,79.36
2022-08-18T08:55:03.987Z,79.54
2022-08-18T08:57:38.156Z,79.24
2022-08-18T09:00:10.264Z,79.50
2022-08-18T09:02:48.989Z,79.15
2022-08-18T09:05:25.383Z,79.41
2022-08-18T09:08:03.006Z,78.53
2022-08-18T09:10:59.994Z,78.55
2022-08-18T09:14:05.270Z,78.09
2022-08-18T09:16:46.952Z,78.05
2022-08-18T09:19:45.187Z,77.81
2022-08-18T09:22:32.805Z,77.52
2022-08-18T09:25:00.025Z,78.00
2022-08-18T09:28:07.314Z,77.70
2022-08-18T09:30:42.644Z,77.61
2022-08-18T09:33:19.616Z,77.49
2022-08-18T09:36:10.104Z,77.58
2022-08-18T09:39:05.909Z,77.00
2022-08-18T09:41:37.980Z,76.90
2022-08-18T09:44:21.299Z,77.42
2022-08-18T09:46:55.835Z,77.35
2022-08-18T09:49:22.375Z,77.00
2022-08-18T09:52:21.268Z,76.92
2022-08-18T09:54:52.214Z,77.16
2022-08-18T09:57:22.504Z,75.92
2022-08-18T10:02:36.980Z,75.22
2022-08-18T10:05:15.932Z,74.48
2022-08-18T10:07:54.246Z,74.64
2022-08-18T10:13:32.403Z,72.98
2022-08-18T10:16:28.086Z,72.49
2022-08-18T10:19:16.494Z,71.20
2022-08-18T10:21:58.512Z,71.50
2022-08-18T10:24:37.432Z,70.91
2022-08-18T10:27:13.470Z,71.84
2022-08-18T10:29:48.132Z,71.23
2022-08-18T10:32:15.274Z,71.48
2022-08-18T10:34:55.349Z,70.35
2022-08-18T10:37:44.475Z,70.08
2022-08-18T10:40:14.133Z,70.20
2022-08-18T10:42:56.628Z,68.38
2022-08-18T10:45:34.496Z,68.52
2022-08-18T10:48:11.838Z,68.93
2022-08-18T10:50:54.358Z,69.46
2022-08-18T10:53:38.825Z,69.39
2022-08-18T10:56:31.884Z,68.89
2022-08-18T10:59:15.931Z,69.18
2022-08-18T11:02:02.684Z,68.45
2022-08-18T11:04:41.050Z,66.85
2022-08-18T11:07:15.867Z,67.41
2022-08-18T11:09:57.291Z,67.97
2022-08-18T11:13:04.566Z,66.81
2022-08-18T11:15:58.227Z,66.35
2022-08-18T11:18:43.501Z,65.42
2022-08-18T11:21:32.916Z,66.02
2022-08-18T11:24:03.960Z,65.93
2022-08-18T11:26:31.798Z,66.35
2022-08-18T11:28:58.267Z,65.54
2022-08-18T11:31:24.968Z,65.69
2022-08-18T11:33:54.454Z,65.94
2022-08-18T11:36:30.774Z,65.36
2022-08-18T11:38:57.770Z,65.06
2022-08-18T11:41:48.091Z,64.93
2022-08-18T11:44:21.013Z,64.81
2022-08-18T11:46:52.164Z,64.59
2022-08-18T11:49:33.737Z,64.44
2022-08-18T11:52:05.763Z,64.75
2022-08-18T11:57:54.490Z,62.64
2022-08-18T12:00:47.934Z,62.50
2022-08-18T12:03:37.117Z,62.62
2022-08-18T12:06:29.845Z,62.86
2022-08-18T12:09:01.603Z,61.25
2022-08-18T12:14:52.058Z,62.02
2022-08-18T12:17:19.351Z,62.03
2022-08-18T12:19:47.492Z,61.78
2022-08-18T12:22:33.510Z,62.09
2022-08-18T12:25:00.478Z,62.25
2022-08-18T12:27:31.807Z,62.56
2022-08-18T12:30:01.724Z,62.97
2022-08-18T12:32:56.033Z,61.36
2022-08-18T12:35:22.228Z,60.77
2022-08-18T12:38:12.482Z,61.19
2022-08-18T12:40:36.003Z,61.12
2022-08-18T12:43:02.543Z,60.48
2022-08-18T12:45:31.074Z,59.37
2022-08-18T12:47:59.591Z,60.58
2022-08-18T12:50:31.466Z,59.84
2022-08-18T12:53:02.488Z,59.62
2022-08-18T12:55:33.976Z,59.33
2022-08-18T12:58:01.835Z,59.58
2022-08-18T13:00:29.200Z,59.57
2022-08-18T13:02:57.307Z,58.61
2022-08-18T13:05:27.685Z,57.92
2022-08-18T13:08:04.637Z,57.87
2022-08-18T13:10:42.807Z,57.04
2022-08-18T13:13:13.718Z,57.79
2022-08-18T13:15:44.190Z,57.14
2022-08-18T13:18:14.182Z,57.77
2022-08-18T13:20:45.078Z,57.33
2022-08-18T13:23:12.067Z,57.64
2022-08-18T13:25:39.942Z,57.45
2022-08-18T13:28:06.724Z,57.35
2022-08-18T13:30:33.446Z,56.79
2022-08-18T13:33:05.916Z,57.03
2022-08-18T13:35:52.316Z,56.39
2022-08-18T13:38:26.107Z,56.54
2022-08-18T13:40:58.695Z,56.20
2022-08-18T13:43:32.271Z,56.80
2022-08-18T13:45:59.821Z,56.80
2022-08-18T13:48:28.370Z,56.43
2022-08-18T13:50:58.936Z,56.84
2022-08-18T13:53:29.035Z,57.04
2022-08-18T13:55:59.361Z,57.66
2022-08-18T13:58:28.517Z,57.68
2022-08-18T14:01:22.438Z,57.47
2022-08-18T14:03:49.983Z,57.63
2022-08-18T14:06:22.630Z,57.75
2022-08-18T14:08:52.687Z,58.08
2022-08-18T14:11:20.279Z,58.46
2022-08-18T14:13:47.090Z,58.86
2022-08-18T14:16:18.723Z,59.37
2022-08-18T14:19:09.683Z,60.06
2022-08-18T14:22:02.103Z,60.18
2022-08-18T14:24:48.920Z,59.88
2022-08-18T14:27:17.321Z,60.61
2022-08-18T14:29:47.794Z,61.68
2022-08-18T14:32:21.951Z,62.00
2022-08-18T14:35:26.963Z,63.10
2022-08-18T14:37:48.329Z,67.22
2022-08-18T14:40:16.353Z,69.80
2022-08-18T14:42:54.934Z,75.32
2022-08-18T14:45:31.395Z,75.48
2022-08-18T14:48:10.964Z,76.46
2022-08-18T14:50:40.072Z,76.91
2022-08-18T14:53:20.019Z,76.15
2022-08-18T14:55:52.157Z,75.33
2022-08-18T14:58:28.722Z,74.42
2022-08-18T15:00:57.177Z,73.88
2022-08-18T15:03:28.181Z,73.33
2022-08-18T15:05:59.059Z,73.07
2022-08-18T15:08:26.845Z,72.29
2022-08-18T15:10:54.463Z,72.41
2022-08-18T15:13:26.310Z,71.98
2022-08-18T15:15:53.614Z,71.47
2022-08-18T15:18:22.673Z,71.45
2022-08-18T15:21:10.437Z,70.94
2022-08-18T15:24:05.247Z,70.87
2022-08-18T15:26:51.709Z,70.62
2022-08-18T15:29:18.561Z,70.35
2022-08-18T15:31:50.681Z,70.56
2022-08-18T15:34:20.667Z,70.42
2022-08-18T15:36:48.045Z,70.53
2022-08-18T15:39:15.317Z,70.29
2022-08-18T15:44:18.490Z,70.84
2022-08-18T15:46:51.400Z,71.55
2022-08-18T15:49:22.915Z,72.05
2022-08-18T15:51:50.335Z,72.76
2022-08-18T15:54:19.818Z,72.84
2022-08-18T15:56:58.114Z,75.32
2022-08-18T15:59:26.981Z,77.43
2022-08-18T16:02:05.567Z,78.10
2022-08-18T16:04:32.559Z,79.68
2022-08-18T16:06:59.114Z,79.57
2022-08-18T16:09:25.906Z,79.04
2022-08-18T16:11:52.413Z,79.13
2022-08-18T16:14:18.949Z,79.37
2022-08-18T16:16:45.512Z,79.35
2022-08-18T16:19:11.992Z,78.58
2022-08-18T16:21:40.229Z,76.86
2022-08-18T16:24:07.696Z,76.60
2022-08-18T16:26:34.224Z,76.66
2022-08-18T16:29:01.971Z,76.67
2022-08-18T16:31:29.830Z,77.04
2022-08-18T16:33:58.134Z,76.52
2022-08-18T16:36:28.015Z,76.82
2022-08-18T16:38:56.061Z,77.08
2022-08-18T16:41:26.259Z,77.59
2022-08-18T16:43:52.771Z,77.66
2022-08-18T16:46:26.210Z,77.95
2022-08-18T16:48:54.566Z,77.99
2022-08-18T16:51:23.431Z,78.16
2022-08-18T16:53:52.960Z,77.65
2022-08-18T16:56:29.063Z,77.03
2022-08-18T16:59:14.810Z,76.94
2022-08-18T17:02:01.083Z,77.17
2022-08-18T17:04:33.435Z,77.17
2022-08-18T17:07:02.425Z,77.46
2022-08-18T17:09:29.333Z,77.54
2022-08-18T17:11:56.080Z,77.86
2022-08-18T17:14:25.510Z,78.25
2022-08-18T17:16:56.796Z,78.83
2022-08-18T17:19:25.593Z,79.34
2022-08-18T17:21:52.939Z,79.02
2022-08-18T17:24:31.209Z,79.18
2022-08-18T17:27:26.940Z,79.62
2022-08-18T17:30:16.087Z,79.64
2022-08-18T17:32:49.728Z,79.69
2022-08-18T17:35:28.610Z,79.63
2022-08-18T17:38:32.745Z,79.76
2022-08-18T17:41:00.948Z,80.02
2022-08-18T17:43:33.136Z,80.23
2022-08-18T17:46:27.482Z,80.20
2022-08-18T17:49:03.455Z,80.77
2022-08-18T17:51:43.605Z,80.48
2022-08-18T17:54:21.980Z,80.55
2022-08-18T17:56:53.736Z,81.81
2022-08-18T17:59:51.014Z,81.90
2022-08-18T18:02:29.581Z,82.66
2022-08-18T18:04:58.981Z,83.30
2022-08-18T18:07:27.647Z,83.67
2022-08-18T18:10:17.366Z,84.04
2022-08-18T18:12:43.990Z,84.41
2022-08-18T18:15:13.480Z,85.05
2022-08-18T18:17:43.135Z,85.91
2022-08-18T18:20:41.759Z,86.93
2022-08-18T18:23:16.609Z,87.38
2022-08-18T18:25:43.589Z,87.64
2022-08-18T18:28:35.890Z,88.24
2022-08-18T18:31:25.081Z,88.52
2022-08-18T18:33:57.249Z,88.80
2022-08-18T18:36:41.414Z,89.14
2022-08-18T18:39:22.692Z,89.99
2022-08-18T18:42:29.914Z,89.72
2022-08-18T18:44:59.830Z,90.31
2022-08-18T18:47:32.447Z,90.89
2022-08-18T18:50:06.296Z,91.46
2022-08-18T18:52:57.013Z,91.95
2022-08-18T18:55:26.874Z,92.58
2022-08-18T18:58:14.808Z,93.40
2022-08-18T19:00:54.078Z,93.20
2022-08-18T19:03:34.902Z,93.03
2022-08-18T19:06:14.091Z,93.39
2022-08-18T19:08:43.653Z,93.96
2022-08-18T19:11:19.426Z,93.90
2022-08-18T19:13:59.664Z,94.09
2022-08-18T19:16:37.488Z,94.17
2022-08-18T19:19:38.169Z,94.46
2022-08-18T19:22:19.526Z,94.29
2022-08-18T19:24:54.401Z,94.28
2022-08-18T19:27:29.001Z,94.00
2022-08-18T19:30:01.359Z,94.03
2022-08-18T19:32:38.516Z,94.05
2022-08-18T19:35:11.868Z,93.96
2022-08-18T19:38:01.995Z,93.92
2022-08-18T19:40:54.478Z,94.06
2022-08-18T19:43:53.610Z,94.03
2022-08-18T19:47:08.860Z,94.06
2022-08-18T19:49:56.391Z,93.71
2022-08-18T19:52:54.517Z,93.24
2022-08-18T19:55:50.181Z,93.05
2022-08-18T19:59:12.863Z,93.24
2022-08-18T20:02:08.659Z,92.66
2022-08-18T20:04:58.014Z,92.92
2022-08-18T20:07:27.283Z,92.83
2022-08-18T20:10:15.898Z,92.51
2022-08-18T20:13:13.987Z,92.31
2022-08-18T20:16:13.305Z,91.96
2022-08-18T20:18:49.057Z,91.88
2022-08-18T20:21:15.802Z,92.09
2022-08-18T20:24:13.807Z,91.78
2022-08-18T20:26:43.454Z,91.87
2022-08-18T20:29:14.746Z,91.85
2022-08-18T20:31:58.201Z,91.47
2022-08-18T20:34:27.911Z,91.51
2022-08-18T20:36:57.649Z,91.58
2022-08-18T20:39:45.084Z,91.53
2022-08-18T20:42:20.762Z,91.27
2022-08-18T20:44:50.235Z,91.18
2022-08-18T20:47:47.673Z,91.25
2022-08-18T20:50:33.765Z,91.29
2022-08-18T20:53:21.908Z,91.28
2022-08-18T20:56:31.955Z,91.43
2022-08-18T20:59:09.225Z,91.52
2022-08-18T21:01:36.761Z,91.33
2022-08-18T21:04:03.586Z,91.47
2022-08-18T21:06:34.634Z,91.41
2022-08-18T21:09:01.653Z,91.38
2022-08-18T21:11:36.112Z,91.43
2022-08-18T21:14:03.770Z,91.46
2022-08-18T21:16:38.584Z,91.49
2022-08-18T21:19:18.217Z,91.41
2022-08-18T21:21:48.811Z,91.33
2022-08-18T21:24:29.553Z,91.57
2022-08-18T21:27:03.972Z,91.50
2022-08-18T21:29:46.899Z,91.68
2022-08-18T21:32:22.702Z,91.80
2022-08-18T21:34:49.798Z,91.70
2022-08-18T21:37:18.787Z,92.02
2022-08-18T21:39:54.677Z,91.87
2022-08-18T21:42:29.243Z,92.00
2022-08-18T21:45:00.554Z,92.08
2022-08-18T21:47:33.730Z,91.99
2022-08-18T21:50:31.205Z,92.26
2022-08-18T21:53:01.377Z,92.56
2022-08-18T21:55:35.532Z,92.68
2022-08-18T21:58:16.624Z,92.75
2022-08-18T22:00:47.628Z,93.00
2022-08-18T22:03:16.752Z,93.04
2022-08-18T22:05:58.994Z,93.15
2022-08-18T22:08:32.906Z,93.27
2022-08-18T22:11:43.540Z,93.59
2022-08-18T22:14:53.687Z,93.48
2022-08-18T22:17:42.007Z,93.78
2022-08-18T22:21:10.404Z,93.89
2022-08-18T22:24:02.631Z,93.79
2022-08-18T22:26:37.615Z,93.94
2022-08-18T22:29:08.193Z,94.06
2022-08-18T22:31:43.278Z,94.34
2022-08-18T22:34:27.062Z,94.63
2022-08-18T22:36:59.815Z,94.57
2022-08-18T22:39:39.089Z,94.75
2022-08-18T22:42:07.431Z,94.95
2022-08-18T22:44:34.220Z,95.14
2022-08-18T22:47:01.078Z,95.34
2022-08-18T22:49:27.576Z,95.69
2022-08-18T22:51:55.112Z,95.89
2022-08-18T22:54:23.525Z,96.07
2022-08-18T22:56:55.172Z,95.68
2022-08-18T22:59:25.619Z,96.05
2022-08-18T23:01:55.042Z,96.19
2022-08-18T23:04:24.618Z,96.61
2022-08-18T23:06:52.449Z,96.36
2022-08-18T23:09:31.794Z,96.36
2022-08-18T23:12:02.013Z,96.27
2022-08-18T23:14:32.947Z,96.11
2022-08-18T23:17:01.590Z,96.36
2022-08-18T23:19:31.411Z,96.28
2022-08-18T23:21:59.814Z,96.30
2022-08-18T23:24:26.465Z,96.42
2022-08-18T23:26:53.121Z,96.36
2022-08-18T23:29:21.434Z,96.33
2022-08-18T23:31:49.633Z,96.44
2022-08-18T23:34:18.579Z,96.48
2022-08-18T23:36:51.267Z,96.24
2022-08-18T23:39:18.007Z,96.44
2022-08-18T23:41:45.076Z,96.32
2022-08-18T23:44:13.771Z,96.57
2022-08-18T23:46:43.787Z,97.02
2022-08-18T23:49:14.937Z,97.07
2022-08-18T23:51:45.230Z,97.30
2022-08-18T23:54:20.752Z,97.33
2022-08-18T23:56:48.352Z,97.49
2022-08-18T23:59:17.773Z,97.64
